createdAt,value
2022-11-28T00:00:00.258Z,2.9
2022-11-28T00:10:00.229Z,2.9
2022-11-28T00:20:00.379Z,2.7
2022-11-28T00:30:00.257Z,2.4
2022-11-28T00:40:00.243Z,2.2
2022-11-28T00:50:00.233Z,1.9
2022-11-28T01:00:00.260Z,1.6
2022-11-28T01:10:00.255Z,1.5
2022-11-28T01:20:00.320Z,1.2
2022-11-28T01:30:00.240Z,1.0
2022-11-28T01:40:00.222Z,0.9
2022-11-28T01:50:00.237Z,0.7
2022-11-28T02:00:00.268Z,0.5
2022-11-28T02:10:00.235Z,0.4
2022-11-28T02:20:00.289Z,0.2
2022-11-28T02:30:00.399Z,0.1
2022-11-28T02:40:00.245Z,0.0
2022-11-28T02:50:00.241Z,-0.1
2022-11-28T03:00:00.231Z,-0.2
2022-11-28T03:10:00.222Z,-0.3
2022-11-28T03:20:00.271Z,-0.4
2022-11-28T03:30:00.237Z,-0.5
2022-11-28T03:40:00.245Z,-0.6
2022-11-28T03:50:00.232Z,-0.8
2022-11-28T04:00:00.225Z,-0.8
2022-11-28T04:10:00.236Z,-0.8
2022-11-28T04:20:00.314Z,-1.0
2022-11-28T04:30:00.227Z,-1.0
2022-11-28T04:40:00.213Z,-1.1
2022-11-28T04:50:00.226Z,-1.2
2022-11-28T05:00:00.295Z,-1.2
2022-11-28T05:10:00.280Z,-1.4
2022-11-28T05:20:00.361Z,-1.4
2022-11-28T05:30:00.250Z,-1.6
2022-11-28T05:40:00.268Z,-1.7
2022-11-28T05:50:00.241Z,-1.7
2022-11-28T06:00:00.244Z,-1.8
2022-11-28T06:10:00.238Z,-1.8
2022-11-28T06:20:00.489Z,-1.9
2022-11-28T06:30:00.262Z,-1.9
2022-11-28T06:40:00.262Z,-1.9
2022-11-28T06:50:00.234Z,-1.9
2022-11-28T07:00:00.270Z,-1.8
2022-11-28T07:10:00.254Z,-1.7
2022-11-28T07:20:00.293Z,-1.6
2022-11-28T07:30:00.232Z,-1.4
2022-11-28T07:40:00.277Z,-1.3
2022-11-28T07:50:00.261Z,-1.1
2022-11-28T08:00:00.282Z,-0.9
2022-11-28T08:10:00.238Z,-0.8
2022-11-28T08:20:00.317Z,-0.5
2022-11-28T08:30:00.272Z,-0.3
2022-11-28T08:40:00.258Z,-0.2
2022-11-28T08:50:00.258Z,0.0
2022-11-28T09:00:00.254Z,0.0
2022-11-28T09:10:00.228Z,0.2
2022-11-28T09:20:00.304Z,0.6
2022-11-28T09:30:00.277Z,1.0
2022-11-28T09:40:13.408Z,1.3
2022-11-28T09:50:00.251Z,1.4
2022-11-28T10:00:00.253Z,1.7
2022-11-28T10:10:00.264Z,1.9
2022-11-28T10:20:00.587Z,2.3
2022-11-28T10:30:00.295Z,2.7
2022-11-28T10:40:00.262Z,2.9
2022-11-28T10:50:00.276Z,3.1
2022-11-28T11:00:00.273Z,3.2
2022-11-28T11:10:00.260Z,3.3
2022-11-28T11:20:00.344Z,3.4
2022-11-28T11:30:00.259Z,3.6
2022-11-28T11:40:00.257Z,3.7
2022-11-28T11:50:00.257Z,3.8
2022-11-28T12:00:00.256Z,3.9
2022-11-28T12:10:04.270Z,4.0
2022-11-28T12:30:00.406Z,4.0
2022-11-28T12:40:00.274Z,4.0
2022-11-28T12:50:00.298Z,3.8
2022-11-28T13:00:05.180Z,3.7
2022-11-28T13:10:00.272Z,3.6
2022-11-28T13:20:00.270Z,3.4
2022-11-28T13:30:00.327Z,3.3
2022-11-28T13:40:00.311Z,3.3
2022-11-28T13:50:02.188Z,3.3
2022-11-28T14:00:00.296Z,3.3
2022-11-28T14:10:01.276Z,3.3
2022-11-28T14:20:00.272Z,3.2
2022-11-28T14:30:00.355Z,3.2
2022-11-28T14:40:00.253Z,3.2
2022-11-28T14:50:00.268Z,3.2
2022-11-28T15:00:00.294Z,3.3
2022-11-28T15:10:04.173Z,3.4
2022-11-28T15:20:00.257Z,3.4
2022-11-28T15:30:00.385Z,3.5
2022-11-28T15:40:00.272Z,3.5
2022-11-28T15:50:00.320Z,3.4
2022-11-28T16:00:00.234Z,3.4
2022-11-28T16:10:00.396Z,3.3
2022-11-28T16:20:00.356Z,3.3
2022-11-28T16:30:00.287Z,3.2
2022-11-28T16:40:00.348Z,3.2
2022-11-28T16:50:00.331Z,3.1
2022-11-28T17:00:00.280Z,3.1
2022-11-28T17:10:00.282Z,3.1
2022-11-28T17:20:00.267Z,3.1
2022-11-28T17:30:00.293Z,3.1
2022-11-28T17:40:00.275Z,3.1
2022-11-28T17:50:00.344Z,3.0
2022-11-28T18:00:00.468Z,2.9
2022-11-28T18:10:00.281Z,2.9
2022-11-28T18:20:00.263Z,2.8
2022-11-28T18:30:00.293Z,2.8
2022-11-28T18:40:00.236Z,2.7
2022-11-28T18:50:00.288Z,2.7
2022-11-28T19:00:00.805Z,2.7
2022-11-28T19:10:00.298Z,2.7
2022-11-28T19:20:00.494Z,2.7
2022-11-28T19:30:00.280Z,2.6
2022-11-28T19:40:02.693Z,2.5
2022-11-28T19:50:00.273Z,2.5
2022-11-28T20:00:00.357Z,2.5
2022-11-28T20:10:00.297Z,2.5
2022-11-28T20:20:00.291Z,2.5
2022-11-28T20:30:00.300Z,2.4
2022-11-28T20:40:00.278Z,2.3
2022-11-28T20:50:00.303Z,2.3
2022-11-28T21:00:00.338Z,2.3
2022-11-28T21:10:00.354Z,2.2
2022-11-28T21:20:00.257Z,2.2
2022-11-28T21:30:00.329Z,2.1
2022-11-28T21:40:00.288Z,2.1
2022-11-28T21:50:00.292Z,2.0
2022-11-28T22:00:00.368Z,1.9
2022-11-28T22:10:00.257Z,1.9
2022-11-28T22:20:00.270Z,1.8
2022-11-28T22:30:00.263Z,1.8
2022-11-28T22:40:00.261Z,1.8
2022-11-28T22:50:00.223Z,1.8
2022-11-28T23:00:00.395Z,1.8
2022-11-28T23:10:00.318Z,1.8
2022-11-28T23:20:00.258Z,1.8
2022-11-28T23:30:00.314Z,1.8
2022-11-28T23:40:00.316Z,1.8
2022-11-28T23:50:00.296Z,1.7
